sensor_id;sensor_type;location;lat;lon;timestamp;pressure;altitude;pressure_sealevel;temperature;humidity
56863;BME280;42746;49.976;20.182;2022-07-18T00:00:09;99069.41;;;13.92;72.33
56863;BME280;42746;49.976;20.182;2022-07-18T00:02:30;99069.59;;;13.85;73.19
56863;BME280;42746;49.976;20.182;2022-07-18T00:04:31;99076.09;;;13.79;73.43
56863;BME280;42746;49.976;20.182;2022-07-18T00:06:31;99073.84;;;13.73;73.48
56863;BME280;42746;49.976;20.182;2022-07-18T00:08:32;99079.81;;;13.72;73.74
56863;BME280;42746;49.976;20.182;2022-07-18T00:10:33;99069.66;;;13.69;74.30
56863;BME280;42746;49.976;20.182;2022-07-18T00:12:34;99070.41;;;13.69;74.08
56863;BME280;42746;49.976;20.182;2022-07-18T00:14:35;99072.75;;;13.71;74.11
56863;BME280;42746;49.976;20.182;2022-07-18T00:16:38;99069.97;;;13.71;74.14
56863;BME280;42746;49.976;20.182;2022-07-18T00:18:39;99066.22;;;13.65;74.65
56863;BME280;42746;49.976;20.182;2022-07-18T00:20:40;99075.69;;;13.64;75.28
56863;BME280;42746;49.976;20.182;2022-07-18T00:22:41;99069.50;;;13.60;75.28
56863;BME280;42746;49.976;20.182;2022-07-18T00:24:42;99071.91;;;13.57;75.46
56863;BME280;42746;49.976;20.182;2022-07-18T00:26:43;99079.16;;;13.51;76.12
56863;BME280;42746;49.976;20.182;2022-07-18T00:28:44;99068.91;;;13.52;76.03
56863;BME280;42746;49.976;20.182;2022-07-18T00:30:45;99069.66;;;13.52;76.19
56863;BME280;42746;49.976;20.182;2022-07-18T00:32:47;99075.19;;;13.52;75.88
56863;BME280;42746;49.976;20.182;2022-07-18T00:34:48;99068.13;;;13.51;75.75
56863;BME280;42746;49.976;20.182;2022-07-18T00:36:48;99071.22;;;13.53;76.18
56863;BME280;42746;49.976;20.182;2022-07-18T00:38:49;99078.63;;;13.56;75.57
56863;BME280;42746;49.976;20.182;2022-07-18T00:40:50;99071.91;;;13.57;75.14
56863;BME280;42746;49.976;20.182;2022-07-18T00:42:51;99088.47;;;13.57;75.31
56863;BME280;42746;49.976;20.182;2022-07-18T00:44:53;99078.97;;;13.58;75.63
56863;BME280;42746;49.976;20.182;2022-07-18T00:46:55;99083.03;;;13.54;76.12
56863;BME280;42746;49.976;20.182;2022-07-18T00:48:58;99081.59;;;13.49;76.57
56863;BME280;42746;49.976;20.182;2022-07-18T00:50:59;99083.72;;;13.42;77.21
56863;BME280;42746;49.976;20.182;2022-07-18T00:53:00;99080.47;;;13.30;78.05
56863;BME280;42746;49.976;20.182;2022-07-18T00:55:00;99081.41;;;13.24;78.56
56863;BME280;42746;49.976;20.182;2022-07-18T00:57:01;99072.06;;;13.17;79.30
56863;BME280;42746;49.976;20.182;2022-07-18T00:59:02;99079.59;;;13.17;79.66
56863;BME280;42746;49.976;20.182;2022-07-18T01:01:04;99084.75;;;13.15;80.52
56863;BME280;42746;49.976;20.182;2022-07-18T01:03:04;99075.03;;;13.10;80.94
56863;BME280;42746;49.976;20.182;2022-07-18T01:05:08;99075.47;;;13.09;81.49
56863;BME280;42746;49.976;20.182;2022-07-18T01:07:09;99077.16;;;13.03;81.83
56863;BME280;42746;49.976;20.182;2022-07-18T01:09:10;99085.16;;;12.97;82.37
56863;BME280;42746;49.976;20.182;2022-07-18T01:11:12;99077.44;;;12.92;83.06
56863;BME280;42746;49.976;20.182;2022-07-18T01:13:13;99068.44;;;12.88;83.68
56863;BME280;42746;49.976;20.182;2022-07-18T01:15:14;99071.19;;;12.88;83.46
56863;BME280;42746;49.976;20.182;2022-07-18T01:17:16;99066.47;;;12.88;83.47
56863;BME280;42746;49.976;20.182;2022-07-18T01:19:17;99063.31;;;12.90;83.59
56863;BME280;42746;49.976;20.182;2022-07-18T01:21:19;99061.41;;;12.87;83.55
56863;BME280;42746;49.976;20.182;2022-07-18T01:23:20;99056.38;;;12.82;84.63
56863;BME280;42746;49.976;20.182;2022-07-18T01:25:21;99058.97;;;12.72;85.49
56863;BME280;42746;49.976;20.182;2022-07-18T01:27:22;99061.53;;;12.63;85.86
56863;BME280;42746;49.976;20.182;2022-07-18T01:29:23;99053.88;;;12.54;86.27
56863;BME280;42746;49.976;20.182;2022-07-18T01:31:24;99060.97;;;12.52;87.13
56863;BME280;42746;49.976;20.182;2022-07-18T01:33:24;99057.47;;;12.51;87.70
56863;BME280;42746;49.976;20.182;2022-07-18T01:35:26;99049.53;;;12.53;87.07
56863;BME280;42746;49.976;20.182;2022-07-18T01:37:29;99050.66;;;12.56;87.54
56863;BME280;42746;49.976;20.182;2022-07-18T01:39:30;99046.38;;;12.55;87.96
56863;BME280;42746;49.976;20.182;2022-07-18T01:41:31;99046.44;;;12.51;88.05
56863;BME280;42746;49.976;20.182;2022-07-18T01:43:32;99047.00;;;12.43;88.61
56863;BME280;42746;49.976;20.182;2022-07-18T01:45:33;99049.56;;;12.33;89.28
56863;BME280;42746;49.976;20.182;2022-07-18T01:47:34;99038.69;;;12.26;89.55
56863;BME280;42746;49.976;20.182;2022-07-18T01:49:36;99034.91;;;12.20;90.18
56863;BME280;42746;49.976;20.182;2022-07-18T01:51:37;99036.97;;;12.16;91.08
56863;BME280;42746;49.976;20.182;2022-07-18T01:53:40;99030.34;;;12.13;91.26
56863;BME280;42746;49.976;20.182;2022-07-18T01:55:40;99025.59;;;12.14;91.63
56863;BME280;42746;49.976;20.182;2022-07-18T01:57:41;99029.53;;;12.13;nan
56863;BME280;42746;49.976;20.182;2022-07-18T01:59:42;99027.22;;;12.11;91.93
56863;BME280;42746;49.976;20.182;2022-07-18T02:01:45;99024.91;;;12.10;92.17
56863;BME280;42746;49.976;20.182;2022-07-18T02:03:45;99034.63;;;12.14;91.38
56863;BME280;42746;49.976;20.182;2022-07-18T02:05:46;99028.28;;;12.17;91.42
56863;BME280;42746;49.976;20.182;2022-07-18T02:07:47;99027.13;;;12.15;91.86
56863;BME280;42746;49.976;20.182;2022-07-18T02:09:49;99032.66;;;12.15;91.55
56863;BME280;42746;49.976;20.182;2022-07-18T02:11:50;99029.88;;;12.15;91.75
56863;BME280;42746;49.976;20.182;2022-07-18T02:13:51;99025.59;;;12.14;91.84
56863;BME280;42746;49.976;20.182;2022-07-18T02:15:52;99026.44;;;12.11;92.05
56863;BME280;42746;49.976;20.182;2022-07-18T02:17:53;99026.44;;;12.11;91.93
56863;BME280;42746;49.976;20.182;2022-07-18T02:19:53;99021.78;;;12.08;91.95
56863;BME280;42746;49.976;20.182;2022-07-18T02:21:54;99028.16;;;12.05;92.27
56863;BME280;42746;49.976;20.182;2022-07-18T02:23:55;99021.16;;;12.00;92.79
56863;BME280;42746;49.976;20.182;2022-07-18T02:25:57;99022.00;;;11.97;92.81
56863;BME280;42746;49.976;20.182;2022-07-18T02:27:58;99022.78;;;11.97;92.78
56863;BME280;42746;49.976;20.182;2022-07-18T02:29:59;99025.53;;;11.97;93.11
56863;BME280;42746;49.976;20.182;2022-07-18T02:32:00;99021.22;;;11.96;93.24
56863;BME280;42746;49.976;20.182;2022-07-18T02:34:00;99027.59;;;11.93;93.41
56863;BME280;42746;49.976;20.182;2022-07-18T02:36:02;99031.13;;;11.94;93.50
56863;BME280;42746;49.976;20.182;2022-07-18T02:38:03;99030.00;;;11.91;93.40
56863;BME280;42746;49.976;20.182;2022-07-18T02:40:05;99030.34;;;11.93;93.36
56863;BME280;42746;49.976;20.182;2022-07-18T02:42:08;99028.44;;;11.90;93.53
56863;BME280;42746;49.976;20.182;2022-07-18T02:44:09;99031.19;;;11.90;93.49
56863;BME280;42746;49.976;20.182;2022-07-18T02:46:10;99030.41;;;11.90;93.54
56863;BME280;42746;49.976;20.182;2022-07-18T02:48:11;99040.19;;;11.91;93.54
56863;BME280;42746;49.976;20.182;2022-07-18T02:50:12;99034.63;;;11.94;93.17
56863;BME280;42746;49.976;20.182;2022-07-18T02:52:13;99041.69;;;11.95;92.82
56863;BME280;42746;49.976;20.182;2022-07-18T02:54:14;99044.03;;;11.97;92.68
56863;BME280;42746;49.976;20.182;2022-07-18T02:56:14;99040.88;;;11.98;92.33
56863;BME280;42746;49.976;20.182;2022-07-18T02:58:17;99042.75;;;12.01;92.48
56863;BME280;42746;49.976;20.182;2022-07-18T03:00:18;99041.97;;;12.01;92.14
56863;BME280;42746;49.976;20.182;2022-07-18T03:02:19;99037.59;;;12.03;92.14
56863;BME280;42746;49.976;20.182;2022-07-18T03:04:20;99042.34;;;12.03;92.41
56863;BME280;42746;49.976;20.182;2022-07-18T03:06:21;99035.19;;;12.06;92.32
56863;BME280;42746;49.976;20.182;2022-07-18T03:08:21;99043.78;;;12.08;92.68
56863;BME280;42746;49.976;20.182;2022-07-18T03:10:22;99039.78;;;12.12;92.75
56863;BME280;42746;49.976;20.182;2022-07-18T03:12:23;99034.97;;;12.16;92.45
56863;BME280;42746;49.976;20.182;2022-07-18T03:14:25;99030.97;;;12.21;92.39
56863;BME280;42746;49.976;20.182;2022-07-18T03:16:26;99039.50;;;12.27;92.35
56863;BME280;42746;49.976;20.182;2022-07-18T03:18:27;99036.22;;;12.32;92.31
56863;BME280;42746;49.976;20.182;2022-07-18T03:20:28;99043.84;;;12.44;91.70
56863;BME280;42746;49.976;20.182;2022-07-18T03:22:29;99042.41;;;12.56;91.02
56863;BME280;42746;49.976;20.182;2022-07-18T03:24:30;99048.44;;;12.67;90.92
56863;BME280;42746;49.976;20.182;2022-07-18T03:26:31;99044.50;;;12.85;90.29
56863;BME280;42746;49.976;20.182;2022-07-18T03:28:32;99046.84;;;13.03;88.99
56863;BME280;42746;49.976;20.182;2022-07-18T03:30:34;99051.75;;;13.28;88.49
56863;BME280;42746;49.976;20.182;2022-07-18T03:32:35;99049.16;;;13.53;87.87
56863;BME280;42746;49.976;20.182;2022-07-18T03:34:36;99056.25;;;13.84;86.28
56863;BME280;42746;49.976;20.182;2022-07-18T03:36:37;99058.28;;;14.09;82.16
56863;BME280;42746;49.976;20.182;2022-07-18T03:38:38;99066.75;;;14.31;81.57
56863;BME280;42746;49.976;20.182;2022-07-18T03:40:38;99062.94;;;14.54;80.02
56863;BME280;42746;49.976;20.182;2022-07-18T03:42:41;99064.72;;;14.73;79.22
56863;BME280;42746;49.976;20.182;2022-07-18T03:44:41;99067.50;;;14.86;77.88
56863;BME280;42746;49.976;20.182;2022-07-18T03:46:44;99060.66;;;14.91;76.89
56863;BME280;42746;49.976;20.182;2022-07-18T03:48:45;99064.06;;;14.95;75.99
56863;BME280;42746;49.976;20.182;2022-07-18T03:50:45;99071.47;;;14.98;75.35
56863;BME280;42746;49.976;20.182;2022-07-18T03:52:46;99063.97;;;15.11;74.55
56863;BME280;42746;49.976;20.182;2022-07-18T03:54:47;99073.44;;;15.36;73.54
56863;BME280;42746;49.976;20.182;2022-07-18T03:56:48;99077.00;;;15.59;72.44
56863;BME280;42746;49.976;20.182;2022-07-18T03:58:48;99070.50;;;15.87;72.16
56863;BME280;42746;49.976;20.182;2022-07-18T04:00:50;99074.13;;;16.19;70.74
56863;BME280;42746;49.976;20.182;2022-07-18T04:02:52;99067.53;;;16.48;68.74
56863;BME280;42746;49.976;20.182;2022-07-18T04:04:53;99074.06;;;16.63;67.45
56863;BME280;42746;49.976;20.182;2022-07-18T04:06:54;99061.50;;;16.81;66.59
56863;BME280;42746;49.976;20.182;2022-07-18T04:08:55;99067.78;;;16.94;66.19
56863;BME280;42746;49.976;20.182;2022-07-18T04:10:55;99075.03;;;17.10;65.74
56863;BME280;42746;49.976;20.182;2022-07-18T04:12:56;99078.00;;;17.16;64.68
56863;BME280;42746;49.976;20.182;2022-07-18T04:14:57;99071.50;;;17.10;64.70
56863;BME280;42746;49.976;20.182;2022-07-18T04:16:58;99068.41;;;17.08;64.76
56863;BME280;42746;49.976;20.182;2022-07-18T04:19:00;99073.53;;;17.18;63.88
56863;BME280;42746;49.976;20.182;2022-07-18T04:21:01;99075.56;;;17.36;63.94
56863;BME280;42746;49.976;20.182;2022-07-18T04:23:05;99083.00;;;17.58;62.52
56863;BME280;42746;49.976;20.182;2022-07-18T04:25:06;99085.84;;;17.86;62.25
56863;BME280;42746;49.976;20.182;2022-07-18T04:27:07;99080.25;;;18.04;61.14
56863;BME280;42746;49.976;20.182;2022-07-18T04:29:08;99081.19;;;18.19;60.03
56863;BME280;42746;49.976;20.182;2022-07-18T04:31:09;99077.13;;;18.39;59.84
56863;BME280;42746;49.976;20.182;2022-07-18T04:33:10;99081.09;;;18.56;59.22
56863;BME280;42746;49.976;20.182;2022-07-18T04:35:12;99088.16;;;18.67;58.84
56863;BME280;42746;49.976;20.182;2022-07-18T04:37:13;99082.56;;;18.76;57.89
56863;BME280;42746;49.976;20.182;2022-07-18T04:39:14;99085.34;;;18.85;58.13
56863;BME280;42746;49.976;20.182;2022-07-18T04:41:15;99093.91;;;19.06;57.40
56863;BME280;42746;49.976;20.182;2022-07-18T04:43:16;99099.22;;;19.28;56.69
56863;BME280;42746;49.976;20.182;2022-07-18T04:45:16;99089.09;;;19.40;55.03
56863;BME280;42746;49.976;20.182;2022-07-18T04:47:18;99101.53;;;19.29;54.20
56863;BME280;42746;49.976;20.182;2022-07-18T04:49:19;99104.72;;;19.13;53.97
56863;BME280;42746;49.976;20.182;2022-07-18T04:51:21;99106.69;;;18.88;53.53
56863;BME280;42746;49.976;20.182;2022-07-18T04:53:21;99100.97;;;18.73;54.68
56863;BME280;42746;49.976;20.182;2022-07-18T04:55:23;99092.13;;;18.42;55.64
56863;BME280;42746;49.976;20.182;2022-07-18T04:57:24;99106.19;;;18.29;56.63
56863;BME280;42746;49.976;20.182;2022-07-18T04:59:24;99106.47;;;18.40;57.30
56863;BME280;42746;49.976;20.182;2022-07-18T05:01:25;99095.59;;;18.70;56.65
56863;BME280;42746;49.976;20.182;2022-07-18T05:03:26;99091.53;;;18.80;55.94
56863;BME280;42746;49.976;20.182;2022-07-18T05:05:28;99095.59;;;18.70;54.07
56863;BME280;42746;49.976;20.182;2022-07-18T05:07:30;99094.34;;;18.62;55.11
56863;BME280;42746;49.976;20.182;2022-07-18T05:09:31;99092.06;;;18.60;55.07
56863;BME280;42746;49.976;20.182;2022-07-18T05:11:31;99089.69;;;18.77;55.57
56863;BME280;42746;49.976;20.182;2022-07-18T05:13:32;99087.94;;;18.98;55.14
56863;BME280;42746;49.976;20.182;2022-07-18T05:15:33;99087.31;;;19.27;54.51
56863;BME280;42746;49.976;20.182;2022-07-18T05:17:35;99086.84;;;19.53;53.45
56863;BME280;42746;49.976;20.182;2022-07-18T05:19:36;99089.44;;;19.81;53.63
56863;BME280;42746;49.976;20.182;2022-07-18T05:21:36;99089.31;;;19.99;51.70
56863;BME280;42746;49.976;20.182;2022-07-18T05:23:38;99078.34;;;20.10;51.55
56863;BME280;42746;49.976;20.182;2022-07-18T05:25:40;99080.69;;;20.27;50.95
56863;BME280;42746;49.976;20.182;2022-07-18T05:27:41;99083.84;;;20.49;50.69
56863;BME280;42746;49.976;20.182;2022-07-18T05:29:42;99074.34;;;20.86;49.34
56863;BME280;42746;49.976;20.182;2022-07-18T05:31:43;99074.16;;;20.75;48.11
56863;BME280;42746;49.976;20.182;2022-07-18T05:33:43;99079.44;;;20.87;48.62
56863;BME280;42746;49.976;20.182;2022-07-18T05:35:44;99080.16;;;21.03;48.30
56863;BME280;42746;49.976;20.182;2022-07-18T05:37:45;99082.63;;;20.80;46.70
56863;BME280;42746;49.976;20.182;2022-07-18T05:39:49;99078.19;;;20.59;47.36
56863;BME280;42746;49.976;20.182;2022-07-18T05:41:49;99077.81;;;20.36;47.89
56863;BME280;42746;49.976;20.182;2022-07-18T05:43:50;99073.75;;;20.07;48.23
56863;BME280;42746;49.976;20.182;2022-07-18T05:45:51;99075.94;;;20.03;49.64
56863;BME280;42746;49.976;20.182;2022-07-18T05:47:52;99081.63;;;20.09;49.82
56863;BME280;42746;49.976;20.182;2022-07-18T05:49:53;99073.75;;;20.07;49.43
56863;BME280;42746;49.976;20.182;2022-07-18T05:51:54;99078.22;;;19.90;49.52
56863;BME280;42746;49.976;20.182;2022-07-18T05:53:55;99076.16;;;19.75;49.40
56863;BME280;42746;49.976;20.182;2022-07-18T05:55:57;99074.47;;;19.78;50.29
56863;BME280;42746;49.976;20.182;2022-07-18T05:57:58;99073.13;;;19.88;50.00
56863;BME280;42746;49.976;20.182;2022-07-18T05:59:58;99074.88;;;19.86;50.22
56863;BME280;42746;49.976;20.182;2022-07-18T06:01:59;99070.22;;;19.83;49.92
56863;BME280;42746;49.976;20.182;2022-07-18T06:04:00;99065.22;;;19.72;50.14
56863;BME280;42746;49.976;20.182;2022-07-18T06:06:01;99066.28;;;19.74;50.87
56863;BME280;42746;49.976;20.182;2022-07-18T06:08:02;99064.00;;;19.88;49.60
56863;BME280;42746;49.976;20.182;2022-07-18T06:10:03;99065.34;;;19.78;48.93
56863;BME280;42746;49.976;20.182;2022-07-18T06:12:06;99072.91;;;19.53;49.63
56863;BME280;42746;49.976;20.182;2022-07-18T06:14:07;99061.81;;;19.44;49.65
56863;BME280;42746;49.976;20.182;2022-07-18T06:16:09;99066.47;;;19.47;49.89
56863;BME280;42746;49.976;20.182;2022-07-18T06:18:10;99061.69;;;19.62;50.24
56863;BME280;42746;49.976;20.182;2022-07-18T06:20:11;99064.09;;;19.79;49.53
56863;BME280;42746;49.976;20.182;2022-07-18T06:22:12;99069.66;;;19.79;48.68
56863;BME280;42746;49.976;20.182;2022-07-18T06:24:12;99066.91;;;19.69;49.46
56863;BME280;42746;49.976;20.182;2022-07-18T06:26:14;99073.53;;;19.57;49.04
56863;BME280;42746;49.976;20.182;2022-07-18T06:28:16;99066.41;;;19.32;49.67
56863;BME280;42746;49.976;20.182;2022-07-18T06:30:16;99077.25;;;19.30;50.48
56863;BME280;42746;49.976;20.182;2022-07-18T06:32:17;99073.28;;;19.46;50.83
56863;BME280;42746;49.976;20.182;2022-07-18T06:34:18;99069.28;;;19.62;49.78
56863;BME280;42746;49.976;20.182;2022-07-18T06:36:19;99069.25;;;19.47;50.20
56863;BME280;42746;49.976;20.182;2022-07-18T06:38:20;99074.28;;;19.33;49.63
56863;BME280;42746;49.976;20.182;2022-07-18T06:40:20;99070.00;;;19.23;50.32
56863;BME280;42746;49.976;20.182;2022-07-18T06:42:21;99066.22;;;19.11;50.56
56863;BME280;42746;49.976;20.182;2022-07-18T06:44:23;99068.53;;;19.13;51.39
56863;BME280;42746;49.976;20.182;2022-07-18T06:46:24;99075.41;;;19.27;51.80
56863;BME280;42746;49.976;20.182;2022-07-18T06:48:25;99069.94;;;19.32;51.06
56863;BME280;42746;49.976;20.182;2022-07-18T06:50:26;99072.22;;;19.43;51.16
56863;BME280;42746;49.976;20.182;2022-07-18T06:52:26;99068.59;;;19.52;51.19
56863;BME280;42746;49.976;20.182;2022-07-18T06:54:27;99071.72;;;19.69;50.65
56863;BME280;42746;49.976;20.182;2022-07-18T06:56:28;99067.53;;;19.73;49.69
56863;BME280;42746;49.976;20.182;2022-07-18T06:58:29;99072.66;;;19.66;49.63
56863;BME280;42746;49.976;20.182;2022-07-18T07:00:31;99069.84;;;19.75;49.78
56863;BME280;42746;49.976;20.182;2022-07-18T07:02:32;99069.28;;;19.86;49.04
56863;BME280;42746;49.976;20.182;2022-07-18T07:04:32;99065.63;;;19.80;47.91
56863;BME280;42746;49.976;20.182;2022-07-18T07:06:33;99070.97;;;19.68;48.06
56863;BME280;42746;49.976;20.182;2022-07-18T07:08:34;99068.06;;;19.63;48.71
56863;BME280;42746;49.976;20.182;2022-07-18T07:10:35;99068.25;;;19.59;48.37
56863;BME280;42746;49.976;20.182;2022-07-18T07:12:39;99071.09;;;19.50;48.42
56863;BME280;42746;49.976;20.182;2022-07-18T07:14:40;99071.91;;;19.65;49.44
56863;BME280;42746;49.976;20.182;2022-07-18T07:16:42;99073.91;;;19.89;48.59
56863;BME280;42746;49.976;20.182;2022-07-18T07:18:43;99067.56;;;20.03;48.57
56863;BME280;42746;49.976;20.182;2022-07-18T07:20:44;99070.88;;;20.17;48.54
56863;BME280;42746;49.976;20.182;2022-07-18T07:22:46;99072.59;;;20.29;47.92
56863;BME280;42746;49.976;20.182;2022-07-18T07:24:47;99079.34;;;20.37;47.89
56863;BME280;42746;49.976;20.182;2022-07-18T07:26:48;99071.84;;;20.43;48.14
56863;BME280;42746;49.976;20.182;2022-07-18T07:28:49;99066.66;;;20.51;47.21
56863;BME280;42746;49.976;20.182;2022-07-18T07:30:50;99070.88;;;20.46;48.17
56863;BME280;42746;49.976;20.182;2022-07-18T07:32:52;99073.66;;;20.46;47.46
56863;BME280;42746;49.976;20.182;2022-07-18T07:34:54;99075.50;;;20.34;46.91
56863;BME280;42746;49.976;20.182;2022-07-18T07:36:54;99076.75;;;20.33;46.85
56863;BME280;42746;49.976;20.182;2022-07-18T07:38:55;99081.63;;;20.24;46.50
56863;BME280;42746;49.976;20.182;2022-07-18T07:40:56;99076.25;;;20.35;47.68
56863;BME280;42746;49.976;20.182;2022-07-18T07:43:07;99071.19;;;20.48;47.24
56863;BME280;42746;49.976;20.182;2022-07-18T07:45:09;99082.63;;;20.50;46.72
56863;BME280;42746;49.976;20.182;2022-07-18T07:47:11;99072.81;;;20.40;46.85
56863;BME280;42746;49.976;20.182;2022-07-18T07:49:13;99079.03;;;20.35;46.30
56863;BME280;42746;49.976;20.182;2022-07-18T07:51:14;99084.72;;;20.26;45.61
56863;BME280;42746;49.976;20.182;2022-07-18T07:53:15;99080.59;;;20.21;45.11
56863;BME280;42746;49.976;20.182;2022-07-18T07:55:15;99085.97;;;20.25;44.82
56863;BME280;42746;49.976;20.182;2022-07-18T07:57:16;99085.97;;;20.25;45.54
56863;BME280;42746;49.976;20.182;2022-07-18T07:59:17;99097.81;;;20.34;44.89
56863;BME280;42746;49.976;20.182;2022-07-18T08:01:18;99083.38;;;20.36;44.22
56863;BME280;42746;49.976;20.182;2022-07-18T08:03:19;99086.28;;;20.42;44.78
56863;BME280;42746;49.976;20.182;2022-07-18T08:05:21;99088.47;;;20.52;44.86
56863;BME280;42746;49.976;20.182;2022-07-18T08:07:22;99085.31;;;20.60;44.04
56863;BME280;42746;49.976;20.182;2022-07-18T08:09:23;99085.53;;;20.71;44.44
56863;BME280;42746;49.976;20.182;2022-07-18T08:11:24;99078.09;;;20.83;43.97
56863;BME280;42746;49.976;20.182;2022-07-18T08:13:24;99085.88;;;20.79;43.91
56863;BME280;42746;49.976;20.182;2022-07-18T08:15:25;99083.94;;;20.85;44.16
56863;BME280;42746;49.976;20.182;2022-07-18T08:17:26;99079.72;;;20.89;44.49
56863;BME280;42746;49.976;20.182;2022-07-18T08:19:27;99081.25;;;20.90;42.30
56863;BME280;42746;49.976;20.182;2022-07-18T08:21:29;99093.59;;;20.84;41.99
56863;BME280;42746;49.976;20.182;2022-07-18T08:23:30;99081.06;;;20.79;42.90
56863;BME280;42746;49.976;20.182;2022-07-18T08:25:32;99078.72;;;20.92;43.21
56863;BME280;42746;49.976;20.182;2022-07-18T08:27:34;99087.19;;;20.98;41.39
56863;BME280;42746;49.976;20.182;2022-07-18T08:29:34;99079.31;;;20.82;42.32
56863;BME280;42746;49.976;20.182;2022-07-18T08:31:35;99070.88;;;20.76;42.57
56863;BME280;42746;49.976;20.182;2022-07-18T08:33:36;99076.06;;;20.83;42.54
56863;BME280;42746;49.976;20.182;2022-07-18T08:35:37;99074.53;;;20.82;42.92
56863;BME280;42746;49.976;20.182;2022-07-18T08:37:39;99073.16;;;20.92;42.65
56863;BME280;42746;49.976;20.182;2022-07-18T08:39:40;99072.19;;;20.96;40.80
56863;BME280;42746;49.976;20.182;2022-07-18T08:41:42;99074.13;;;20.89;42.23
56863;BME280;42746;49.976;20.182;2022-07-18T08:43:45;99068.13;;;20.97;42.25
56863;BME280;42746;49.976;20.182;2022-07-18T08:45:47;99066.28;;;21.08;42.46
56863;BME280;42746;49.976;20.182;2022-07-18T08:47:48;99062.44;;;21.26;42.62
56863;BME280;42746;49.976;20.182;2022-07-18T08:49:48;99058.44;;;21.48;42.64
56863;BME280;42746;49.976;20.182;2022-07-18T08:51:51;99061.94;;;21.63;42.50
56863;BME280;42746;49.976;20.182;2022-07-18T08:53:53;99058.03;;;21.76;41.99
56863;BME280;42746;49.976;20.182;2022-07-18T08:55:54;99062.06;;;21.75;41.71
56863;BME280;42746;49.976;20.182;2022-07-18T08:57:55;99059.94;;;21.64;40.40
56863;BME280;42746;49.976;20.182;2022-07-18T08:59:55;99053.00;;;21.59;41.26
56863;BME280;42746;49.976;20.182;2022-07-18T09:01:56;99056.47;;;21.75;40.40
56863;BME280;42746;49.976;20.182;2022-07-18T09:03:57;99059.00;;;21.73;40.04
56863;BME280;42746;49.976;20.182;2022-07-18T09:06:06;99049.78;;;21.66;39.90
56863;BME280;42746;49.976;20.182;2022-07-18T09:08:08;99054.75;;;21.77;40.90
56863;BME280;42746;49.976;20.182;2022-07-18T09:10:11;99055.75;;;22.00;40.46
56863;BME280;42746;49.976;20.182;2022-07-18T09:12:11;99057.16;;;21.90;41.51
56863;BME280;42746;49.976;20.182;2022-07-18T09:14:27;99051.94;;;21.77;41.31
56863;BME280;42746;49.976;20.182;2022-07-18T09:16:28;99051.47;;;21.79;41.22
56863;BME280;42746;49.976;20.182;2022-07-18T09:18:30;99057.03;;;21.79;42.30
56863;BME280;42746;49.976;20.182;2022-07-18T09:20:30;99056.63;;;21.65;41.46
56863;BME280;42746;49.976;20.182;2022-07-18T09:22:32;99057.31;;;21.40;41.22
56863;BME280;42746;49.976;20.182;2022-07-18T09:24:49;99052.16;;;21.53;43.11
56863;BME280;42746;49.976;20.182;2022-07-18T09:26:51;99054.53;;;21.81;41.36
56863;BME280;42746;49.976;20.182;2022-07-18T09:28:53;99061.09;;;21.78;41.64
56863;BME280;42746;49.976;20.182;2022-07-18T09:30:55;99056.25;;;21.78;41.33
56863;BME280;42746;49.976;20.182;2022-07-18T09:33:06;99057.81;;;21.79;42.15
56863;BME280;42746;49.976;20.182;2022-07-18T09:35:08;99056.69;;;21.71;40.90
56863;BME280;42746;49.976;20.182;2022-07-18T09:37:11;99049.91;;;21.78;41.87
56863;BME280;42746;49.976;20.182;2022-07-18T09:39:18;99053.69;;;21.75;40.62
56863;BME280;42746;49.976;20.182;2022-07-18T09:41:21;99054.53;;;21.81;41.10
56863;BME280;42746;49.976;20.182;2022-07-18T09:43:25;99058.56;;;21.80;41.19
56863;BME280;42746;49.976;20.182;2022-07-18T09:45:28;99054.81;;;21.83;41.83
56863;BME280;42746;49.976;20.182;2022-07-18T09:47:29;99046.41;;;21.83;40.87
56863;BME280;42746;49.976;20.182;2022-07-18T09:49:31;99057.31;;;21.81;40.89
56863;BME280;42746;49.976;20.182;2022-07-18T09:51:32;99051.00;;;21.86;40.89
56863;BME280;42746;49.976;20.182;2022-07-18T09:53:34;99056.38;;;21.90;40.98
56863;BME280;42746;49.976;20.182;2022-07-18T09:55:40;99059.22;;;21.95;41.00
56863;BME280;42746;49.976;20.182;2022-07-18T09:57:42;99048.16;;;22.06;41.38
56863;BME280;42746;49.976;20.182;2022-07-18T09:59:44;99048.72;;;22.11;41.52
56863;BME280;42746;49.976;20.182;2022-07-18T10:01:45;99041.69;;;22.21;42.27
56863;BME280;42746;49.976;20.182;2022-07-18T10:03:46;99059.03;;;22.25;41.27
56863;BME280;42746;49.976;20.182;2022-07-18T10:05:48;99050.63;;;22.25;41.90
56863;BME280;42746;49.976;20.182;2022-07-18T10:07:49;99043.66;;;22.35;41.59
56863;BME280;42746;49.976;20.182;2022-07-18T10:09:50;99038.94;;;22.53;41.77
56863;BME280;42746;49.976;20.182;2022-07-18T10:11:51;99040.56;;;22.65;40.29
56863;BME280;42746;49.976;20.182;2022-07-18T10:13:52;99041.63;;;22.73;40.54
56863;BME280;42746;49.976;20.182;2022-07-18T10:15:54;99041.63;;;22.73;39.96
56863;BME280;42746;49.976;20.182;2022-07-18T10:17:56;99042.88;;;22.67;39.28
56863;BME280;42746;49.976;20.182;2022-07-18T10:20:03;99035.19;;;22.61;39.61
56863;BME280;42746;49.976;20.182;2022-07-18T10:22:04;99039.56;;;22.68;40.17
56863;BME280;42746;49.976;20.182;2022-07-18T10:24:07;99041.63;;;22.73;39.66
56863;BME280;42746;49.976;20.182;2022-07-18T10:26:14;99029.53;;;22.88;41.06
56863;BME280;42746;49.976;20.182;2022-07-18T10:28:15;99038.81;;;23.05;40.06
56863;BME280;42746;49.976;20.182;2022-07-18T10:30:16;99038.25;;;23.01;39.48
56863;BME280;42746;49.976;20.182;2022-07-18T10:32:31;99036.16;;;22.90;39.23
56863;BME280;42746;49.976;20.182;2022-07-18T10:34:34;99029.81;;;22.95;39.83